createdAt,value
2023-12-30T00:01:48.624Z,7.00
2023-12-30T00:04:18.952Z,7.01
2023-12-30T00:06:49.726Z,7.01
2023-12-30T00:09:20.311Z,7.02
2023-12-30T00:11:51.241Z,7.03
2023-12-30T00:14:20.118Z,7.03
2023-12-30T00:16:51.206Z,7.05
2023-12-30T00:19:21.536Z,7.06
2023-12-30T00:21:51.245Z,7.06
2023-12-30T00:24:21.394Z,7.04
2023-12-30T00:26:51.799Z,7.00
2023-12-30T00:29:22.976Z,6.97
2023-12-30T00:31:52.506Z,6.97
2023-12-30T00:34:23.154Z,6.98
2023-12-30T00:36:53.620Z,6.97
2023-12-30T00:39:25.281Z,6.97
2023-12-30T00:41:54.926Z,6.96
2023-12-30T00:44:25.568Z,6.95
2023-12-30T00:46:56.835Z,6.95
2023-12-30T00:49:27.567Z,6.94
2023-12-30T00:51:58.616Z,6.94
2023-12-30T00:54:37.968Z,6.93
2023-12-30T00:57:11.869Z,6.92
2023-12-30T00:59:43.858Z,6.91
2023-12-30T01:02:13.727Z,6.90
2023-12-30T01:04:44.550Z,6.89
2023-12-30T01:07:15.567Z,6.90
2023-12-30T01:09:46.744Z,6.87
2023-12-30T01:12:17.380Z,6.86
2023-12-30T01:14:47.816Z,6.86
2023-12-30T01:17:18.668Z,6.87
2023-12-30T01:19:48.676Z,6.87
2023-12-30T01:22:20.071Z,6.88
2023-12-30T01:24:50.504Z,6.90
2023-12-30T01:27:21.734Z,6.90
2023-12-30T01:29:51.662Z,6.90
2023-12-30T01:32:23.305Z,6.90
2023-12-30T01:34:52.837Z,6.93
2023-12-30T01:37:23.602Z,6.95
2023-12-30T01:39:53.444Z,6.95
2023-12-30T01:42:25.895Z,6.95
2023-12-30T01:44:55.518Z,6.97
2023-12-30T01:47:24.625Z,6.99
2023-12-30T01:49:54.224Z,7.01
2023-12-30T01:52:25.003Z,7.01
2023-12-30T01:54:55.682Z,7.01
2023-12-30T01:57:24.848Z,7.02
2023-12-30T01:59:55.582Z,7.02
2023-12-30T02:02:25.350Z,7.01
2023-12-30T02:04:56.181Z,6.99
2023-12-30T02:07:26.212Z,6.97
2023-12-30T02:09:56.367Z,6.97
2023-12-30T02:12:25.500Z,6.97
2023-12-30T02:14:54.445Z,6.95
2023-12-30T02:17:26.110Z,6.94
2023-12-30T02:19:57.268Z,6.93
2023-12-30T02:22:27.523Z,6.91
2023-12-30T02:25:01.374Z,6.89
2023-12-30T02:27:31.235Z,6.86
2023-12-30T02:30:00.577Z,6.83
2023-12-30T02:32:30.888Z,6.78
2023-12-30T02:35:01.209Z,6.75
2023-12-30T02:37:32.034Z,6.71
2023-12-30T02:40:02.117Z,6.68
2023-12-30T02:42:33.978Z,6.64
2023-12-30T02:45:33.019Z,6.64
2023-12-30T02:48:02.893Z,6.64
2023-12-30T02:50:33.942Z,6.60
2023-12-30T02:53:04.089Z,6.55
2023-12-30T02:55:34.529Z,6.53
2023-12-30T02:58:04.341Z,6.52
2023-12-30T03:00:34.829Z,6.50
2023-12-30T03:03:04.986Z,6.51
2023-12-30T03:05:34.428Z,6.48
2023-12-30T03:08:04.343Z,6.48
2023-12-30T03:10:35.461Z,6.48
2023-12-30T03:13:06.272Z,6.48
2023-12-30T03:15:35.659Z,6.52
2023-12-30T03:18:05.508Z,6.58
2023-12-30T03:20:35.750Z,6.66
2023-12-30T03:23:05.132Z,6.73
2023-12-30T03:25:38.891Z,6.84
2023-12-30T03:28:09.250Z,6.91
2023-12-30T03:30:39.286Z,6.99
2023-12-30T03:33:09.279Z,7.07
2023-12-30T03:35:40.335Z,7.12
2023-12-30T03:38:08.991Z,7.15
2023-12-30T03:40:38.382Z,7.18
2023-12-30T03:43:08.174Z,7.20
2023-12-30T03:46:08.242Z,7.21
2023-12-30T03:48:39.887Z,7.24
2023-12-30T03:51:12.384Z,7.26
2023-12-30T03:53:41.788Z,7.24
2023-12-30T03:56:13.436Z,7.27
2023-12-30T03:58:42.936Z,7.25
2023-12-30T04:01:12.195Z,7.10
2023-12-30T04:03:42.268Z,6.98
2023-12-30T04:06:18.031Z,6.94
2023-12-30T04:08:47.777Z,6.89
2023-12-30T04:11:16.418Z,6.83
2023-12-30T04:13:45.310Z,6.78
2023-12-30T04:16:16.793Z,6.71
2023-12-30T04:18:46.702Z,6.62
2023-12-30T04:21:17.934Z,6.53
2023-12-30T04:23:48.302Z,6.57
2023-12-30T04:26:17.004Z,6.54
2023-12-30T04:28:49.798Z,6.44
2023-12-30T04:31:20.733Z,6.34
2023-12-30T04:33:50.163Z,6.14
2023-12-30T04:36:21.490Z,6.01
2023-12-30T04:38:51.997Z,5.93
2023-12-30T04:41:24.388Z,5.86
2023-12-30T04:43:56.142Z,5.77
2023-12-30T04:46:50.467Z,5.67
2023-12-30T04:49:20.653Z,5.53
2023-12-30T04:51:51.086Z,5.43
2023-12-30T04:54:19.784Z,5.37
2023-12-30T04:56:48.647Z,5.31
2023-12-30T04:59:19.008Z,5.21
2023-12-30T05:01:49.935Z,5.13
2023-12-30T05:04:20.421Z,5.08
2023-12-30T05:06:50.009Z,5.03
2023-12-30T05:09:22.040Z,5.02
2023-12-30T05:11:52.741Z,4.99
2023-12-30T05:14:23.497Z,4.97
2023-12-30T05:16:52.725Z,4.94
2023-12-30T05:19:21.404Z,4.91
2023-12-30T05:21:53.282Z,4.86
2023-12-30T05:24:23.877Z,4.83
2023-12-30T05:26:54.521Z,4.83
2023-12-30T05:29:25.256Z,4.85
2023-12-30T05:31:55.924Z,4.86
2023-12-30T05:34:26.107Z,4.89
2023-12-30T05:36:56.594Z,4.90
2023-12-30T05:39:26.998Z,4.89
2023-12-30T05:41:56.596Z,4.90
2023-12-30T05:44:27.114Z,4.89
2023-12-30T05:46:57.552Z,4.91
2023-12-30T05:49:28.499Z,4.95
2023-12-30T05:51:59.049Z,4.97
2023-12-30T05:54:28.304Z,5.01
2023-12-30T05:56:57.012Z,5.01
2023-12-30T05:59:28.252Z,5.01
2023-12-30T06:02:00.863Z,4.98
2023-12-30T06:04:31.019Z,4.95
2023-12-30T06:07:01.805Z,4.92
2023-12-30T06:09:30.785Z,4.89
2023-12-30T06:12:00.203Z,4.86
2023-12-30T06:14:30.453Z,4.83
2023-12-30T06:17:00.890Z,4.81
2023-12-30T06:19:31.292Z,4.79
2023-12-30T06:22:01.721Z,4.79
2023-12-30T06:24:31.495Z,4.77
2023-12-30T06:27:00.836Z,4.76
2023-12-30T06:29:31.563Z,4.74
2023-12-30T06:32:05.725Z,4.72
2023-12-30T06:34:36.235Z,4.67
2023-12-30T06:37:06.594Z,4.64
2023-12-30T06:39:37.299Z,4.60
2023-12-30T06:42:06.794Z,4.55
2023-12-30T06:44:40.765Z,4.49
2023-12-30T06:47:11.083Z,4.47
2023-12-30T06:49:41.015Z,4.49
2023-12-30T06:52:11.258Z,4.53
2023-12-30T06:54:44.441Z,4.58
2023-12-30T06:57:15.123Z,4.65
2023-12-30T06:59:44.663Z,4.71
2023-12-30T07:02:15.434Z,4.76
2023-12-30T07:04:44.435Z,4.83
2023-12-30T07:07:15.317Z,4.88
2023-12-30T07:09:45.325Z,4.93
2023-12-30T07:12:15.045Z,4.97
2023-12-30T07:14:43.933Z,4.99
2023-12-30T07:17:14.034Z,5.02
2023-12-30T07:19:42.948Z,5.06
2023-12-30T07:22:13.673Z,5.10
2023-12-30T07:24:46.584Z,5.13
2023-12-30T07:27:16.194Z,5.12
2023-12-30T07:29:45.296Z,5.14
2023-12-30T07:32:14.689Z,5.14
2023-12-30T07:34:43.446Z,5.12
2023-12-30T07:37:13.138Z,5.12
2023-12-30T07:39:42.426Z,5.11
2023-12-30T07:42:11.295Z,5.11
2023-12-30T07:44:42.974Z,5.11
2023-12-30T07:47:13.082Z,5.12
2023-12-30T07:49:43.700Z,5.12
2023-12-30T07:52:13.890Z,5.14
2023-12-30T07:54:45.184Z,5.16
2023-12-30T07:57:15.737Z,5.16
2023-12-30T07:59:46.179Z,5.17
2023-12-30T08:02:16.631Z,5.17
2023-12-30T08:04:47.051Z,5.19
2023-12-30T08:07:18.929Z,5.22
2023-12-30T08:09:50.205Z,5.22
2023-12-30T08:12:20.794Z,5.24
2023-12-30T08:14:49.553Z,5.26
2023-12-30T08:17:19.337Z,5.28
2023-12-30T08:19:50.469Z,5.30
2023-12-30T08:22:20.535Z,5.31
2023-12-30T08:24:49.964Z,5.32
2023-12-30T08:27:20.371Z,5.33
2023-12-30T08:29:50.785Z,5.35
2023-12-30T08:32:20.707Z,5.36
2023-12-30T08:34:49.528Z,5.37
2023-12-30T08:37:19.638Z,5.36
2023-12-30T08:39:48.920Z,5.37
2023-12-30T08:42:18.083Z,5.39
2023-12-30T08:45:19.980Z,5.40
2023-12-30T08:47:49.462Z,5.42
2023-12-30T08:50:18.747Z,5.44
2023-12-30T08:52:47.591Z,5.48
2023-12-30T08:55:16.571Z,5.51
2023-12-30T08:57:49.611Z,5.55
2023-12-30T09:00:19.274Z,5.57
2023-12-30T09:02:49.893Z,5.58
2023-12-30T09:05:22.383Z,5.59
2023-12-30T09:07:52.967Z,5.61
2023-12-30T09:10:22.081Z,5.63
2023-12-30T09:12:51.560Z,5.67
2023-12-30T09:15:21.581Z,5.72
2023-12-30T09:17:54.344Z,5.83
2023-12-30T09:20:24.943Z,5.98
2023-12-30T09:22:55.229Z,6.19
2023-12-30T09:25:26.175Z,6.35
2023-12-30T09:27:57.527Z,6.46
2023-12-30T09:30:29.081Z,6.77
2023-12-30T09:33:00.971Z,6.88
2023-12-30T09:35:31.933Z,6.72
2023-12-30T09:38:02.393Z,6.57
2023-12-30T09:40:33.627Z,6.41
2023-12-30T09:43:08.038Z,6.29
2023-12-30T09:46:08.664Z,6.21
2023-12-30T09:48:39.108Z,6.12
2023-12-30T09:51:08.203Z,6.06
2023-12-30T09:53:36.898Z,6.01
2023-12-30T09:56:07.784Z,6.00
2023-12-30T09:58:41.733Z,5.98
2023-12-30T10:01:11.441Z,6.01
2023-12-30T10:03:41.960Z,6.11
2023-12-30T10:06:13.053Z,7.03
2023-12-30T10:08:45.257Z,7.86
2023-12-30T10:11:13.959Z,9.71
2023-12-30T10:13:43.027Z,9.55
2023-12-30T10:16:14.386Z,8.72
2023-12-30T10:18:43.989Z,8.13
2023-12-30T10:21:14.016Z,7.71
2023-12-30T10:23:42.665Z,7.38
2023-12-30T10:26:11.402Z,7.20
2023-12-30T10:28:40.859Z,7.05
2023-12-30T10:31:10.737Z,6.89
2023-12-30T10:33:42.279Z,6.74
2023-12-30T10:36:14.157Z,6.61
2023-12-30T10:38:42.901Z,6.52
2023-12-30T10:41:12.303Z,6.42
2023-12-30T10:43:41.581Z,6.35
2023-12-30T10:46:14.498Z,6.31
2023-12-30T10:49:05.719Z,6.32
2023-12-30T10:51:36.146Z,6.34
2023-12-30T10:54:12.176Z,6.33
2023-12-30T10:56:46.723Z,6.31
2023-12-30T10:59:16.676Z,6.28
2023-12-30T11:01:47.389Z,6.29
2023-12-30T11:04:18.278Z,6.28
2023-12-30T11:06:53.559Z,6.25
2023-12-30T11:09:24.810Z,6.21
2023-12-30T11:11:54.837Z,6.19
2023-12-30T11:14:23.967Z,6.20
2023-12-30T11:16:56.144Z,6.20
2023-12-30T11:19:37.267Z,6.21
2023-12-30T11:22:08.790Z,6.20
2023-12-30T11:24:43.942Z,6.19
2023-12-30T11:27:15.464Z,6.18
2023-12-30T11:29:46.199Z,6.12
2023-12-30T11:32:18.351Z,6.09
2023-12-30T11:34:49.836Z,6.07
2023-12-30T11:37:20.631Z,6.10
2023-12-30T11:39:52.709Z,6.22
2023-12-30T11:42:33.831Z,6.23
2023-12-30T11:49:08.891Z,6.32
2023-12-30T11:51:38.812Z,6.28
2023-12-30T11:54:08.281Z,6.28
2023-12-30T11:56:38.488Z,6.24
2023-12-30T11:59:09.164Z,6.23
2023-12-30T12:01:38.351Z,6.19
2023-12-30T12:04:07.422Z,6.19
2023-12-30T12:06:39.563Z,6.14
2023-12-30T12:09:11.200Z,6.15
2023-12-30T12:11:42.071Z,6.20
2023-12-30T12:14:12.860Z,6.23
2023-12-30T12:16:42.297Z,6.24
2023-12-30T12:19:11.386Z,6.14
2023-12-30T12:21:42.989Z,6.11
2023-12-30T12:24:11.919Z,6.11
2023-12-30T12:26:42.887Z,6.07
2023-12-30T12:29:13.189Z,6.21
2023-12-30T12:31:45.370Z,6.33
2023-12-30T12:34:25.051Z,6.34
2023-12-30T12:36:55.985Z,6.29
2023-12-30T12:39:26.219Z,6.34
2023-12-30T12:41:56.100Z,6.42
2023-12-30T12:44:26.676Z,6.55
2023-12-30T12:51:24.227Z,6.72
2023-12-30T12:53:55.390Z,6.73
2023-12-30T12:56:26.343Z,6.71
2023-12-30T12:58:55.777Z,6.72
2023-12-30T13:01:24.563Z,6.74
2023-12-30T13:03:56.433Z,6.70
2023-12-30T13:06:27.402Z,6.60
2023-12-30T13:08:57.974Z,6.59
2023-12-30T13:11:34.121Z,6.54
2023-12-30T13:14:05.524Z,6.34
2023-12-30T13:16:35.529Z,6.27
2023-12-30T13:19:06.220Z,6.33
2023-12-30T13:21:36.291Z,6.27
2023-12-30T13:24:06.630Z,6.23
2023-12-30T13:26:37.757Z,6.09
2023-12-30T13:29:08.557Z,6.02
2023-12-30T13:31:38.943Z,5.93
2023-12-30T13:34:11.565Z,5.94
2023-12-30T13:36:43.029Z,5.95
2023-12-30T13:39:15.383Z,5.90
2023-12-30T13:41:47.726Z,5.82
2023-12-30T13:44:19.125Z,5.75
2023-12-30T13:47:35.509Z,5.70
2023-12-30T13:50:18.488Z,5.71
2023-12-30T13:52:52.007Z,5.81
2023-12-30T13:55:24.249Z,5.83
2023-12-30T13:57:55.977Z,5.79
2023-12-30T14:00:25.558Z,5.76
2023-12-30T14:02:56.138Z,5.70
2023-12-30T14:05:31.991Z,5.66
2023-12-30T14:08:32.751Z,5.58
2023-12-30T14:11:11.040Z,5.57
2023-12-30T14:13:40.773Z,5.53
2023-12-30T14:16:15.050Z,5.50
2023-12-30T14:18:44.466Z,5.51
2023-12-30T14:21:15.451Z,5.53
2023-12-30T14:23:45.398Z,5.50
2023-12-30T14:26:15.405Z,5.44
2023-12-30T14:28:46.734Z,5.36
2023-12-30T14:31:18.882Z,5.34
2023-12-30T14:33:51.817Z,5.33
2023-12-30T14:36:23.912Z,5.30
2023-12-30T14:38:53.452Z,5.27
2023-12-30T14:41:26.412Z,5.24
2023-12-30T14:43:56.053Z,5.26
2023-12-30T14:46:54.891Z,5.19
2023-12-30T14:49:31.762Z,5.12
2023-12-30T14:52:01.623Z,5.10
2023-12-30T14:54:31.093Z,5.21
2023-12-30T14:57:01.230Z,5.31
2023-12-30T14:59:31.747Z,5.38
2023-12-30T15:02:05.321Z,5.38
2023-12-30T15:04:35.814Z,5.41
2023-12-30T15:07:07.522Z,5.48
2023-12-30T15:09:37.572Z,5.48
2023-12-30T15:12:07.377Z,5.45
2023-12-30T15:14:38.391Z,5.38
2023-12-30T15:17:08.698Z,5.29
2023-12-30T15:19:39.065Z,5.21
2023-12-30T15:22:08.411Z,5.21
2023-12-30T15:24:39.041Z,5.18
2023-12-30T15:27:10.276Z,5.14
2023-12-30T15:29:39.943Z,5.18
2023-12-30T15:32:10.272Z,5.15
2023-12-30T15:34:40.517Z,5.07
2023-12-30T15:37:10.806Z,4.99
2023-12-30T15:39:40.115Z,4.91
2023-12-30T15:42:09.403Z,4.80
2023-12-30T15:44:40.260Z,4.69
2023-12-30T15:47:16.824Z,4.59
2023-12-30T15:49:46.963Z,4.51
2023-12-30T15:52:16.563Z,4.47
2023-12-30T15:54:45.358Z,4.49
2023-12-30T15:57:14.796Z,4.49
2023-12-30T15:59:45.783Z,4.51
2023-12-30T16:02:15.932Z,4.57
2023-12-30T16:04:46.815Z,4.72
2023-12-30T16:07:16.288Z,4.85
2023-12-30T16:09:47.089Z,5.02
2023-12-30T16:12:17.156Z,5.12
2023-12-30T16:14:48.744Z,5.25
2023-12-30T16:17:19.061Z,5.31
2023-12-30T16:19:48.557Z,5.27
2023-12-30T16:22:18.406Z,5.31
2023-12-30T16:24:48.317Z,5.42
2023-12-30T16:27:18.867Z,5.35
2023-12-30T16:29:50.680Z,5.08
2023-12-30T16:32:22.199Z,4.96
2023-12-30T16:34:51.794Z,5.04
2023-12-30T16:37:24.437Z,5.09
2023-12-30T16:39:56.258Z,5.06
2023-12-30T16:42:26.288Z,4.86
2023-12-30T16:45:04.151Z,4.63
2023-12-30T16:47:36.089Z,4.47
2023-12-30T16:50:07.865Z,4.34
2023-12-30T16:52:37.955Z,4.20
2023-12-30T16:55:12.754Z,4.12
2023-12-30T16:57:47.009Z,4.05
2023-12-30T17:00:21.897Z,3.96
2023-12-30T17:02:52.155Z,3.82
2023-12-30T17:05:24.129Z,3.71
2023-12-30T17:07:54.126Z,3.62
2023-12-30T17:10:25.286Z,3.58
2023-12-30T17:12:56.662Z,3.54
2023-12-30T17:15:26.639Z,3.53
2023-12-30T17:17:58.321Z,3.53
2023-12-30T17:20:28.054Z,3.56
2023-12-30T17:22:58.082Z,3.60
2023-12-30T17:25:28.049Z,3.62
2023-12-30T17:27:56.930Z,3.63
2023-12-30T17:30:26.167Z,3.66
2023-12-30T17:32:56.346Z,3.66
2023-12-30T17:35:28.309Z,3.67
2023-12-30T17:37:58.333Z,3.66
2023-12-30T17:40:28.103Z,3.66
2023-12-30T17:42:59.089Z,3.69
2023-12-30T17:45:56.035Z,3.81
2023-12-30T17:48:24.931Z,3.95
2023-12-30T17:50:55.460Z,4.01
2023-12-30T17:53:25.373Z,4.08
2023-12-30T17:55:56.132Z,4.21
2023-12-30T17:58:26.011Z,4.29
2023-12-30T18:00:55.428Z,4.33
2023-12-30T18:03:26.773Z,4.16
2023-12-30T18:05:57.192Z,3.84
2023-12-30T18:08:26.915Z,3.56
2023-12-30T18:10:57.978Z,3.32
2023-12-30T18:13:31.182Z,3.14
2023-12-30T18:16:03.294Z,2.98
2023-12-30T18:18:33.112Z,2.89
2023-12-30T18:21:02.508Z,2.84
2023-12-30T18:23:33.512Z,2.82
2023-12-30T18:26:03.917Z,2.81
2023-12-30T18:28:33.692Z,2.78
2023-12-30T18:31:03.946Z,2.76
2023-12-30T18:33:33.883Z,2.73
2023-12-30T18:36:03.065Z,2.71
2023-12-30T18:38:33.287Z,2.69
2023-12-30T18:41:04.364Z,2.67
2023-12-30T18:43:35.052Z,2.65
2023-12-30T18:46:57.066Z,2.62
2023-12-30T18:49:28.339Z,2.60
2023-12-30T18:51:59.464Z,2.57
2023-12-30T18:54:30.669Z,2.55
2023-12-30T18:57:01.321Z,2.52
2023-12-30T18:59:33.227Z,2.50
2023-12-30T19:02:05.886Z,2.47
2023-12-30T19:04:37.926Z,2.45
2023-12-30T19:07:10.992Z,2.45
2023-12-30T19:09:42.803Z,2.46
2023-12-30T19:12:12.643Z,2.44
2023-12-30T19:14:42.361Z,2.44
2023-12-30T19:17:13.797Z,2.43
2023-12-30T19:19:44.576Z,2.44
2023-12-30T19:22:14.981Z,2.43
2023-12-30T19:24:47.048Z,2.43
2023-12-30T19:27:17.119Z,2.44
2023-12-30T19:29:46.559Z,2.42
2023-12-30T19:32:17.115Z,2.37
2023-12-30T19:34:47.600Z,2.33
2023-12-30T19:37:17.798Z,2.27
2023-12-30T19:39:48.113Z,2.22
2023-12-30T19:42:17.939Z,2.20
2023-12-30T19:44:49.331Z,2.17
2023-12-30T19:47:19.367Z,2.19
2023-12-30T19:49:48.704Z,2.24
2023-12-30T19:52:19.455Z,2.24
2023-12-30T19:54:49.410Z,2.26
2023-12-30T19:57:20.470Z,2.22
2023-12-30T19:59:51.141Z,2.19
2023-12-30T20:02:21.378Z,2.16
2023-12-30T20:04:52.822Z,2.11
2023-12-30T20:07:24.080Z,2.05
2023-12-30T20:09:55.761Z,2.00
2023-12-30T20:12:31.408Z,1.95
2023-12-30T20:15:05.910Z,1.89
2023-12-30T20:17:45.605Z,1.83
2023-12-30T20:20:20.809Z,1.77
2023-12-30T20:22:52.568Z,1.72
2023-12-30T20:25:22.154Z,1.67
2023-12-30T20:27:54.577Z,1.60
2023-12-30T20:30:25.279Z,1.56
2023-12-30T20:32:56.305Z,1.54
2023-12-30T20:35:29.471Z,1.54
2023-12-30T20:38:02.761Z,1.54
2023-12-30T20:40:34.524Z,1.55
2023-12-30T20:43:08.806Z,1.56
2023-12-30T20:45:40.253Z,1.54
2023-12-30T20:48:11.062Z,1.46
2023-12-30T20:50:41.704Z,1.36
2023-12-30T20:53:14.339Z,1.32
2023-12-30T20:55:45.617Z,1.30
2023-12-30T20:58:18.740Z,1.26
2023-12-30T21:00:47.899Z,1.25
2023-12-30T21:03:17.940Z,1.25
2023-12-30T21:05:47.378Z,1.30
2023-12-30T21:08:17.644Z,1.36
2023-12-30T21:10:49.553Z,1.41
2023-12-30T21:13:21.666Z,1.46
2023-12-30T21:15:53.838Z,1.48
2023-12-30T21:18:23.500Z,1.50
2023-12-30T21:20:53.964Z,1.52
2023-12-30T21:23:24.030Z,1.53
2023-12-30T21:25:56.131Z,1.54
2023-12-30T21:28:29.872Z,1.55
2023-12-30T21:31:03.909Z,1.58
2023-12-30T21:33:35.167Z,1.66
2023-12-30T21:36:07.989Z,1.72
2023-12-30T21:38:39.516Z,1.79
2023-12-30T21:41:12.342Z,1.86
2023-12-30T21:43:42.835Z,1.91
2023-12-30T21:49:58.694Z,2.02
2023-12-30T21:52:28.215Z,2.06
2023-12-30T21:54:58.621Z,2.10
2023-12-30T21:57:30.213Z,2.14
2023-12-30T22:00:01.154Z,2.13
2023-12-30T22:02:35.650Z,2.15
2023-12-30T22:05:04.498Z,2.20
2023-12-30T22:07:35.402Z,2.20
2023-12-30T22:10:05.389Z,2.18
2023-12-30T22:12:39.510Z,2.17
2023-12-30T22:15:09.209Z,2.18
2023-12-30T22:17:38.347Z,2.19
2023-12-30T22:20:09.421Z,2.20
2023-12-30T22:22:41.542Z,2.22
2023-12-30T22:25:11.956Z,2.24
2023-12-30T22:27:42.642Z,2.27
2023-12-30T22:30:12.270Z,2.29
2023-12-30T22:32:44.420Z,2.30
2023-12-30T22:35:17.136Z,2.29
2023-12-30T22:37:47.415Z,2.30
2023-12-30T22:40:16.782Z,2.29
2023-12-30T22:42:45.975Z,2.28
2023-12-30T22:45:19.049Z,2.29
2023-12-30T22:47:49.519Z,2.31
2023-12-30T22:50:18.670Z,2.32
2023-12-30T22:52:47.619Z,2.35
2023-12-30T22:55:17.922Z,2.36
2023-12-30T22:57:46.994Z,2.37
2023-12-30T23:00:22.558Z,2.39
2023-12-30T23:02:52.608Z,2.40
2023-12-30T23:05:22.282Z,2.40
2023-12-30T23:07:52.927Z,2.41
2023-12-30T23:10:22.461Z,2.45
2023-12-30T23:12:53.087Z,2.52
2023-12-30T23:15:23.815Z,2.57
2023-12-30T23:17:54.552Z,2.58
2023-12-30T23:20:25.277Z,2.64
2023-12-30T23:22:55.331Z,2.68
2023-12-30T23:25:25.778Z,2.63
2023-12-30T23:27:56.311Z,2.61
2023-12-30T23:30:27.409Z,2.60
2023-12-30T23:32:59.274Z,2.59
2023-12-30T23:35:29.751Z,2.58
2023-12-30T23:38:02.263Z,2.57
2023-12-30T23:40:35.357Z,2.60
2023-12-30T23:43:04.370Z,2.59
2023-12-30T23:45:35.832Z,2.56
2023-12-30T23:48:05.783Z,2.60
2023-12-30T23:50:36.475Z,2.56
2023-12-30T23:53:05.417Z,2.56
2023-12-30T23:55:35.258Z,2.60
2023-12-30T23:58:05.365Z,2.63
